sensor_id;sensor_type;location;lat;lon;timestamp;P1;durP1;ratioP1;P2;durP2;ratioP2
3299;SDS011;1662;49.310;8.134;2022-08-18T00:01:22;9.67;;;8.77;;
3299;SDS011;1662;49.310;8.134;2022-08-18T00:03:49;9.80;;;9.10;;
3299;SDS011;1662;49.310;8.134;2022-08-18T00:06:17;8.30;;;7.70;;
3299;SDS011;1662;49.310;8.134;2022-08-18T00:08:46;8.60;;;8.10;;
3299;SDS011;1662;49.310;8.134;2022-08-18T00:11:12;8.53;;;7.97;;
3299;SDS011;1662;49.310;8.134;2022-08-18T00:13:50;8.53;;;8.00;;
3299;SDS011;1662;49.310;8.134;2022-08-18T00:16:15;9.50;;;8.20;;
3299;SDS011;1662;49.310;8.134;2022-08-18T00:18:41;8.57;;;8.07;;
3299;SDS011;1662;49.310;8.134;2022-08-18T00:21:09;8.27;;;7.77;;
3299;SDS011;1662;49.310;8.134;2022-08-18T00:23:34;8.90;;;8.10;;
3299;SDS011;1662;49.310;8.134;2022-08-18T00:26:02;9.03;;;8.23;;
3299;SDS011;1662;49.310;8.134;2022-08-18T00:28:28;18.87;;;8.47;;
3299;SDS011;1662;49.310;8.134;2022-08-18T00:30:54;7.90;;;7.37;;
3299;SDS011;1662;49.310;8.134;2022-08-18T00:33:20;8.23;;;7.70;;
3299;SDS011;1662;49.310;8.134;2022-08-18T00:35:46;8.10;;;7.60;;
3299;SDS011;1662;49.310;8.134;2022-08-18T00:38:12;8.03;;;7.43;;
3299;SDS011;1662;49.310;8.134;2022-08-18T00:40:43;8.00;;;7.40;;
3299;SDS011;1662;49.310;8.134;2022-08-18T00:43:14;7.90;;;7.40;;
3299;SDS011;1662;49.310;8.134;2022-08-18T00:45:43;8.60;;;8.00;;
3299;SDS011;1662;49.310;8.134;2022-08-18T00:48:12;8.83;;;8.20;;
3299;SDS011;1662;49.310;8.134;2022-08-18T00:50:44;8.00;;;7.20;;
3299;SDS011;1662;49.310;8.134;2022-08-18T00:55:48;8.10;;;7.60;;
3299;SDS011;1662;49.310;8.134;2022-08-18T00:58:15;9.83;;;8.03;;
3299;SDS011;1662;49.310;8.134;2022-08-18T01:00:55;8.40;;;7.47;;
3299;SDS011;1662;49.310;8.134;2022-08-18T01:03:21;8.10;;;7.60;;
3299;SDS011;1662;49.310;8.134;2022-08-18T01:06:04;8.77;;;8.07;;
3299;SDS011;1662;49.310;8.134;2022-08-18T01:08:38;7.77;;;7.17;;
3299;SDS011;1662;49.310;8.134;2022-08-18T01:11:05;7.80;;;7.20;;
3299;SDS011;1662;49.310;8.134;2022-08-18T01:13:30;7.87;;;7.37;;
3299;SDS011;1662;49.310;8.134;2022-08-18T01:15:57;8.10;;;7.40;;
3299;SDS011;1662;49.310;8.134;2022-08-18T01:18:44;8.03;;;6.53;;
3299;SDS011;1662;49.310;8.134;2022-08-18T01:21:28;8.50;;;7.87;;
3299;SDS011;1662;49.310;8.134;2022-08-18T01:24:13;8.43;;;7.70;;
3299;SDS011;1662;49.310;8.134;2022-08-18T01:26:39;8.40;;;7.60;;
3299;SDS011;1662;49.310;8.134;2022-08-18T01:29:15;7.97;;;7.30;;
3299;SDS011;1662;49.310;8.134;2022-08-18T01:31:44;8.30;;;7.80;;
3299;SDS011;1662;49.310;8.134;2022-08-18T01:34:19;8.47;;;7.80;;
3299;SDS011;1662;49.310;8.134;2022-08-18T01:36:46;9.23;;;8.43;;
3299;SDS011;1662;49.310;8.134;2022-08-18T01:39:16;8.70;;;8.10;;
3299;SDS011;1662;49.310;8.134;2022-08-18T01:41:45;9.10;;;8.20;;
3299;SDS011;1662;49.310;8.134;2022-08-18T01:44:11;8.67;;;7.97;;
3299;SDS011;1662;49.310;8.134;2022-08-18T01:46:37;8.07;;;7.60;;
3299;SDS011;1662;49.310;8.134;2022-08-18T01:49:09;8.27;;;7.67;;
3299;SDS011;1662;49.310;8.134;2022-08-18T01:51:34;8.17;;;7.67;;
3299;SDS011;1662;49.310;8.134;2022-08-18T01:54:02;9.23;;;8.20;;
3299;SDS011;1662;49.310;8.134;2022-08-18T01:56:29;8.30;;;7.60;;
3299;SDS011;1662;49.310;8.134;2022-08-18T01:58:55;9.20;;;8.60;;
3299;SDS011;1662;49.310;8.134;2022-08-18T02:01:21;8.83;;;8.10;;
3299;SDS011;1662;49.310;8.134;2022-08-18T02:03:49;8.40;;;7.80;;
3299;SDS011;1662;49.310;8.134;2022-08-18T02:06:18;8.40;;;7.90;;
3299;SDS011;1662;49.310;8.134;2022-08-18T02:08:44;8.33;;;7.80;;
3299;SDS011;1662;49.310;8.134;2022-08-18T02:11:11;8.93;;;8.33;;
3299;SDS011;1662;49.310;8.134;2022-08-18T02:13:37;9.90;;;8.30;;
3299;SDS011;1662;49.310;8.134;2022-08-18T02:16:04;8.27;;;7.67;;
3299;SDS011;1662;49.310;8.134;2022-08-18T02:18:31;9.00;;;8.40;;
3299;SDS011;1662;49.310;8.134;2022-08-18T02:21:05;9.57;;;8.60;;
3299;SDS011;1662;49.310;8.134;2022-08-18T02:23:35;8.83;;;8.20;;
3299;SDS011;1662;49.310;8.134;2022-08-18T02:26:03;8.17;;;7.63;;
3299;SDS011;1662;49.310;8.134;2022-08-18T02:28:33;9.10;;;8.40;;
3299;SDS011;1662;49.310;8.134;2022-08-18T02:31:06;8.13;;;7.53;;
3299;SDS011;1662;49.310;8.134;2022-08-18T02:33:34;9.40;;;8.70;;
3299;SDS011;1662;49.310;8.134;2022-08-18T02:36:05;9.00;;;8.10;;
3299;SDS011;1662;49.310;8.134;2022-08-18T02:38:31;9.30;;;8.60;;
3299;SDS011;1662;49.310;8.134;2022-08-18T02:40:58;9.87;;;9.00;;
3299;SDS011;1662;49.310;8.134;2022-08-18T02:43:28;9.47;;;8.77;;
3299;SDS011;1662;49.310;8.134;2022-08-18T02:45:54;8.30;;;7.70;;
3299;SDS011;1662;49.310;8.134;2022-08-18T02:48:20;11.20;;;9.43;;
3299;SDS011;1662;49.310;8.134;2022-08-18T02:53:26;9.93;;;9.13;;
3299;SDS011;1662;49.310;8.134;2022-08-18T02:55:52;9.43;;;8.70;;
3299;SDS011;1662;49.310;8.134;2022-08-18T02:58:18;9.27;;;8.57;;
3299;SDS011;1662;49.310;8.134;2022-08-18T03:00:44;9.77;;;8.97;;
3299;SDS011;1662;49.310;8.134;2022-08-18T03:03:10;9.53;;;8.53;;
3299;SDS011;1662;49.310;8.134;2022-08-18T03:05:37;9.57;;;8.77;;
3299;SDS011;1662;49.310;8.134;2022-08-18T03:08:03;10.73;;;9.47;;
3299;SDS011;1662;49.310;8.134;2022-08-18T03:10:29;10.00;;;9.30;;
3299;SDS011;1662;49.310;8.134;2022-08-18T03:12:55;11.17;;;10.17;;
3299;SDS011;1662;49.310;8.134;2022-08-18T03:15:26;9.83;;;9.13;;
3299;SDS011;1662;49.310;8.134;2022-08-18T03:17:52;9.83;;;9.00;;
3299;SDS011;1662;49.310;8.134;2022-08-18T03:20:20;10.37;;;9.30;;
3299;SDS011;1662;49.310;8.134;2022-08-18T03:22:48;12.77;;;10.10;;
3299;SDS011;1662;49.310;8.134;2022-08-18T03:25:16;9.73;;;9.03;;
3299;SDS011;1662;49.310;8.134;2022-08-18T03:27:41;11.83;;;10.83;;
3299;SDS011;1662;49.310;8.134;2022-08-18T03:30:07;10.53;;;9.63;;
3299;SDS011;1662;49.310;8.134;2022-08-18T03:32:33;11.30;;;10.33;;
3299;SDS011;1662;49.310;8.134;2022-08-18T03:35:01;10.93;;;10.00;;
3299;SDS011;1662;49.310;8.134;2022-08-18T03:37:26;11.10;;;10.10;;
3299;SDS011;1662;49.310;8.134;2022-08-18T03:39:52;10.53;;;8.80;;
3299;SDS011;1662;49.310;8.134;2022-08-18T03:42:18;12.33;;;11.23;;
3299;SDS011;1662;49.310;8.134;2022-08-18T03:44:46;9.73;;;8.73;;
3299;SDS011;1662;49.310;8.134;2022-08-18T03:47:11;11.93;;;10.73;;
3299;SDS011;1662;49.310;8.134;2022-08-18T03:49:42;12.07;;;10.83;;
3299;SDS011;1662;49.310;8.134;2022-08-18T03:52:10;10.80;;;9.80;;
3299;SDS011;1662;49.310;8.134;2022-08-18T03:54:35;11.20;;;10.20;;
3299;SDS011;1662;49.310;8.134;2022-08-18T03:57:03;9.93;;;9.13;;
3299;SDS011;1662;49.310;8.134;2022-08-18T03:59:31;11.47;;;10.20;;
3299;SDS011;1662;49.310;8.134;2022-08-18T04:01:57;12.37;;;11.17;;
3299;SDS011;1662;49.310;8.134;2022-08-18T04:04:24;11.20;;;10.20;;
3299;SDS011;1662;49.310;8.134;2022-08-18T04:06:54;10.10;;;9.40;;
3299;SDS011;1662;49.310;8.134;2022-08-18T04:09:22;10.07;;;9.27;;
3299;SDS011;1662;49.310;8.134;2022-08-18T04:11:55;12.30;;;10.87;;
3299;SDS011;1662;49.310;8.134;2022-08-18T04:14:24;10.90;;;10.10;;
3299;SDS011;1662;49.310;8.134;2022-08-18T04:16:57;10.30;;;9.50;;
3299;SDS011;1662;49.310;8.134;2022-08-18T04:19:22;10.80;;;10.00;;
3299;SDS011;1662;49.310;8.134;2022-08-18T04:21:50;11.80;;;10.90;;
3299;SDS011;1662;49.310;8.134;2022-08-18T04:24:17;11.80;;;10.70;;
3299;SDS011;1662;49.310;8.134;2022-08-18T04:26:44;10.40;;;9.60;;
3299;SDS011;1662;49.310;8.134;2022-08-18T04:29:14;11.50;;;10.60;;
3299;SDS011;1662;49.310;8.134;2022-08-18T04:31:45;11.47;;;10.20;;
3299;SDS011;1662;49.310;8.134;2022-08-18T04:34:14;11.70;;;10.37;;
3299;SDS011;1662;49.310;8.134;2022-08-18T04:36:40;11.60;;;10.80;;
3299;SDS011;1662;49.310;8.134;2022-08-18T04:39:08;14.17;;;10.50;;
3299;SDS011;1662;49.310;8.134;2022-08-18T04:41:35;11.10;;;10.30;;
3299;SDS011;1662;49.310;8.134;2022-08-18T04:44:03;12.27;;;11.10;;
3299;SDS011;1662;49.310;8.134;2022-08-18T04:46:34;12.73;;;11.47;;
3299;SDS011;1662;49.310;8.134;2022-08-18T04:49:06;13.00;;;11.70;;
3299;SDS011;1662;49.310;8.134;2022-08-18T04:51:34;12.10;;;11.00;;
3299;SDS011;1662;49.310;8.134;2022-08-18T04:54:00;10.90;;;10.10;;
3299;SDS011;1662;49.310;8.134;2022-08-18T04:56:27;12.07;;;10.97;;
3299;SDS011;1662;49.310;8.134;2022-08-18T04:59:05;13.10;;;11.77;;
3299;SDS011;1662;49.310;8.134;2022-08-18T05:01:34;12.67;;;11.50;;
3299;SDS011;1662;49.310;8.134;2022-08-18T05:04:06;12.47;;;11.47;;
3299;SDS011;1662;49.310;8.134;2022-08-18T05:06:32;12.50;;;11.47;;
3299;SDS011;1662;49.310;8.134;2022-08-18T05:08:59;12.73;;;11.60;;
3299;SDS011;1662;49.310;8.134;2022-08-18T05:11:29;12.87;;;11.67;;
3299;SDS011;1662;49.310;8.134;2022-08-18T05:13:58;14.00;;;12.07;;
3299;SDS011;1662;49.310;8.134;2022-08-18T05:16:34;14.63;;;11.90;;
3299;SDS011;1662;49.310;8.134;2022-08-18T05:19:01;12.83;;;11.73;;
3299;SDS011;1662;49.310;8.134;2022-08-18T05:21:31;12.23;;;11.20;;
3299;SDS011;1662;49.310;8.134;2022-08-18T05:23:57;12.27;;;11.20;;
3299;SDS011;1662;49.310;8.134;2022-08-18T05:26:25;11.97;;;11.07;;
3299;SDS011;1662;49.310;8.134;2022-08-18T05:28:51;12.97;;;11.87;;
3299;SDS011;1662;49.310;8.134;2022-08-18T05:31:19;13.23;;;11.70;;
3299;SDS011;1662;49.310;8.134;2022-08-18T05:33:47;12.50;;;11.30;;
3299;SDS011;1662;49.310;8.134;2022-08-18T05:41:21;15.93;;;14.43;;
3299;SDS011;1662;49.310;8.134;2022-08-18T05:44:12;14.07;;;12.87;;
3299;SDS011;1662;49.310;8.134;2022-08-18T05:49:25;14.77;;;13.37;;
3299;SDS011;1662;49.310;8.134;2022-08-18T05:51:56;15.80;;;14.30;;
3299;SDS011;1662;49.310;8.134;2022-08-18T05:54:25;15.93;;;14.37;;
3299;SDS011;1662;49.310;8.134;2022-08-18T05:57:45;15.73;;;14.33;;
3299;SDS011;1662;49.310;8.134;2022-08-18T06:00:28;15.90;;;14.30;;
3299;SDS011;1662;49.310;8.134;2022-08-18T06:08:46;13.80;;;12.40;;
3299;SDS011;1662;49.310;8.134;2022-08-18T06:11:26;16.53;;;14.87;;
3299;SDS011;1662;49.310;8.134;2022-08-18T06:13:52;17.30;;;15.60;;
3299;SDS011;1662;49.310;8.134;2022-08-18T06:16:23;17.83;;;16.03;;
3299;SDS011;1662;49.310;8.134;2022-08-18T06:25:10;17.13;;;15.40;;
3299;SDS011;1662;49.310;8.134;2022-08-18T06:36:12;16.37;;;14.77;;
3299;SDS011;1662;49.310;8.134;2022-08-18T06:41:23;15.60;;;14.20;;
3299;SDS011;1662;49.310;8.134;2022-08-18T06:46:37;16.10;;;14.70;;
3299;SDS011;1662;49.310;8.134;2022-08-18T06:52:20;15.23;;;13.90;;
3299;SDS011;1662;49.310;8.134;2022-08-18T06:54:51;14.67;;;13.33;;
3299;SDS011;1662;49.310;8.134;2022-08-18T06:57:37;17.53;;;15.30;;
3299;SDS011;1662;49.310;8.134;2022-08-18T07:05:30;18.40;;;16.53;;
3299;SDS011;1662;49.310;8.134;2022-08-18T07:08:43;19.23;;;17.23;;
3299;SDS011;1662;49.310;8.134;2022-08-18T07:10:53;18.67;;;16.97;;
3299;SDS011;1662;49.310;8.134;2022-08-18T07:15:55;17.57;;;15.97;;
3299;SDS011;1662;49.310;8.134;2022-08-18T07:18:39;20.00;;;18.10;;
3299;SDS011;1662;49.310;8.134;2022-08-18T07:21:05;19.00;;;17.20;;
3299;SDS011;1662;49.310;8.134;2022-08-18T07:23:32;16.57;;;14.97;;
3299;SDS011;1662;49.310;8.134;2022-08-18T07:28:45;19.97;;;18.07;;
3299;SDS011;1662;49.310;8.134;2022-08-18T07:31:21;18.17;;;16.47;;
3299;SDS011;1662;49.310;8.134;2022-08-18T07:34:11;19.77;;;17.83;;
3299;SDS011;1662;49.310;8.134;2022-08-18T07:36:48;21.00;;;18.80;;
3299;SDS011;1662;49.310;8.134;2022-08-18T07:47:22;19.40;;;17.60;;
3299;SDS011;1662;49.310;8.134;2022-08-18T07:50:09;20.80;;;18.83;;
3299;SDS011;1662;49.310;8.134;2022-08-18T07:52:39;20.77;;;18.97;;
3299;SDS011;1662;49.310;8.134;2022-08-18T07:55:26;21.43;;;19.20;;
3299;SDS011;1662;49.310;8.134;2022-08-18T07:58:05;19.33;;;17.40;;
3299;SDS011;1662;49.310;8.134;2022-08-18T08:00:53;20.83;;;18.93;;
3299;SDS011;1662;49.310;8.134;2022-08-18T08:06:15;19.30;;;17.60;;
3299;SDS011;1662;49.310;8.134;2022-08-18T08:16:48;19.77;;;17.97;;
3299;SDS011;1662;49.310;8.134;2022-08-18T08:24:54;20.77;;;18.60;;
3299;SDS011;1662;49.310;8.134;2022-08-18T08:27:41;20.47;;;18.47;;
3299;SDS011;1662;49.310;8.134;2022-08-18T08:35:57;20.27;;;18.37;;
3299;SDS011;1662;49.310;8.134;2022-08-18T08:54:47;22.20;;;20.17;;
3299;SDS011;1662;49.310;8.134;2022-08-18T08:57:17;20.37;;;18.43;;
3299;SDS011;1662;49.310;8.134;2022-08-18T08:59:46;21.27;;;19.17;;
3299;SDS011;1662;49.310;8.134;2022-08-18T09:02:31;21.07;;;19.13;;
3299;SDS011;1662;49.310;8.134;2022-08-18T09:05:33;21.10;;;18.87;;
3299;SDS011;1662;49.310;8.134;2022-08-18T09:11:17;22.17;;;19.90;;
3299;SDS011;1662;49.310;8.134;2022-08-18T09:25:52;22.73;;;20.50;;
3299;SDS011;1662;49.310;8.134;2022-08-18T09:42:16;18.80;;;17.23;;
3299;SDS011;1662;49.310;8.134;2022-08-18T09:49:54;19.30;;;17.60;;
3299;SDS011;1662;49.310;8.134;2022-08-18T09:54:58;22.67;;;20.57;;
3299;SDS011;1662;49.310;8.134;2022-08-18T09:57:33;19.83;;;18.03;;
3299;SDS011;1662;49.310;8.134;2022-08-18T10:21:10;19.80;;;17.97;;
3299;SDS011;1662;49.310;8.134;2022-08-18T10:24:11;21.40;;;19.53;;
3299;SDS011;1662;49.310;8.134;2022-08-18T10:28:58;17.33;;;15.83;;
3299;SDS011;1662;49.310;8.134;2022-08-18T10:31:48;19.40;;;17.73;;
3299;SDS011;1662;49.310;8.134;2022-08-18T10:37:15;23.33;;;21.10;;
3299;SDS011;1662;49.310;8.134;2022-08-18T10:39:46;19.30;;;17.53;;
3299;SDS011;1662;49.310;8.134;2022-08-18T10:42:24;17.00;;;15.50;;
3299;SDS011;1662;49.310;8.134;2022-08-18T10:45:09;15.53;;;14.23;;
3299;SDS011;1662;49.310;8.134;2022-08-18T10:50:57;14.90;;;13.70;;
3299;SDS011;1662;49.310;8.134;2022-08-18T10:59:00;13.47;;;12.47;;
3299;SDS011;1662;49.310;8.134;2022-08-18T11:04:34;14.00;;;12.70;;
3299;SDS011;1662;49.310;8.134;2022-08-18T11:09:36;13.00;;;12.00;;
3299;SDS011;1662;49.310;8.134;2022-08-18T11:12:04;14.63;;;13.53;;
3299;SDS011;1662;49.310;8.134;2022-08-18T11:17:50;14.20;;;13.03;;
3299;SDS011;1662;49.310;8.134;2022-08-18T11:20:31;12.43;;;11.53;;
3299;SDS011;1662;49.310;8.134;2022-08-18T11:22:58;13.30;;;12.30;;
3299;SDS011;1662;49.310;8.134;2022-08-18T11:27:56;14.50;;;13.27;;
3299;SDS011;1662;49.310;8.134;2022-08-18T11:30:24;14.83;;;13.63;;
3299;SDS011;1662;49.310;8.134;2022-08-18T11:33:03;13.93;;;12.77;;
3299;SDS011;1662;49.310;8.134;2022-08-18T11:35:43;12.93;;;11.83;;
3299;SDS011;1662;49.310;8.134;2022-08-18T11:38:12;11.57;;;10.67;;
3299;SDS011;1662;49.310;8.134;2022-08-18T11:43:19;14.63;;;13.40;;
3299;SDS011;1662;49.310;8.134;2022-08-18T11:45:59;12.33;;;11.40;;
3299;SDS011;1662;49.310;8.134;2022-08-18T11:48:47;13.83;;;12.70;;
3299;SDS011;1662;49.310;8.134;2022-08-18T11:58:45;12.73;;;11.73;;
3299;SDS011;1662;49.310;8.134;2022-08-18T12:09:46;13.33;;;12.33;;
3299;SDS011;1662;49.310;8.134;2022-08-18T12:12:32;13.47;;;12.40;;
3299;SDS011;1662;49.310;8.134;2022-08-18T12:17:36;12.50;;;11.60;;
3299;SDS011;1662;49.310;8.134;2022-08-18T12:20:02;12.50;;;11.50;;
3299;SDS011;1662;49.310;8.134;2022-08-18T12:22:32;11.97;;;11.07;;
3299;SDS011;1662;49.310;8.134;2022-08-18T12:25:01;12.30;;;11.37;;
3299;SDS011;1662;49.310;8.134;2022-08-18T12:27:28;12.50;;;11.60;;
3299;SDS011;1662;49.310;8.134;2022-08-18T12:29:57;13.20;;;12.13;;
3299;SDS011;1662;49.310;8.134;2022-08-18T12:32:26;10.90;;;10.10;;
3299;SDS011;1662;49.310;8.134;2022-08-18T12:34:53;11.70;;;10.80;;
3299;SDS011;1662;49.310;8.134;2022-08-18T12:37:20;10.30;;;9.50;;
3299;SDS011;1662;49.310;8.134;2022-08-18T12:39:49;10.33;;;9.70;;
3299;SDS011;1662;49.310;8.134;2022-08-18T12:42:15;12.03;;;11.03;;
3299;SDS011;1662;49.310;8.134;2022-08-18T12:44:40;9.23;;;8.63;;
3299;SDS011;1662;49.310;8.134;2022-08-18T12:47:10;10.70;;;9.90;;
3299;SDS011;1662;49.310;8.134;2022-08-18T12:49:37;9.87;;;9.27;;
3299;SDS011;1662;49.310;8.134;2022-08-18T12:52:03;11.97;;;11.07;;
3299;SDS011;1662;49.310;8.134;2022-08-18T12:54:31;10.80;;;10.10;;
3299;SDS011;1662;49.310;8.134;2022-08-18T12:56:58;11.97;;;10.87;;
3299;SDS011;1662;49.310;8.134;2022-08-18T12:59:24;10.53;;;9.70;;
3299;SDS011;1662;49.310;8.134;2022-08-18T13:01:50;9.80;;;9.00;;
3299;SDS011;1662;49.310;8.134;2022-08-18T13:04:16;10.53;;;9.63;;
3299;SDS011;1662;49.310;8.134;2022-08-18T13:06:43;11.57;;;10.77;;
3299;SDS011;1662;49.310;8.134;2022-08-18T13:09:11;10.23;;;9.53;;
3299;SDS011;1662;49.310;8.134;2022-08-18T13:11:37;9.43;;;8.90;;
3299;SDS011;1662;49.310;8.134;2022-08-18T13:14:05;11.90;;;11.00;;
3299;SDS011;1662;49.310;8.134;2022-08-18T13:16:33;10.07;;;9.47;;
3299;SDS011;1662;49.310;8.134;2022-08-18T13:19:00;11.47;;;10.67;;
3299;SDS011;1662;49.310;8.134;2022-08-18T13:21:28;10.07;;;9.47;;
3299;SDS011;1662;49.310;8.134;2022-08-18T13:23:54;10.07;;;9.47;;
3299;SDS011;1662;49.310;8.134;2022-08-18T13:26:33;10.97;;;10.10;;
3299;SDS011;1662;49.310;8.134;2022-08-18T13:29:02;12.07;;;11.20;;
3299;SDS011;1662;49.310;8.134;2022-08-18T13:31:28;11.67;;;10.90;;
3299;SDS011;1662;49.310;8.134;2022-08-18T13:33:55;11.67;;;10.87;;
3299;SDS011;1662;49.310;8.134;2022-08-18T13:36:22;11.60;;;10.80;;
3299;SDS011;1662;49.310;8.134;2022-08-18T13:38:50;11.80;;;11.00;;
3299;SDS011;1662;49.310;8.134;2022-08-18T13:41:18;11.73;;;11.03;;
3299;SDS011;1662;49.310;8.134;2022-08-18T13:43:44;11.87;;;11.00;;
3299;SDS011;1662;49.310;8.134;2022-08-18T13:46:11;11.10;;;10.37;;
3299;SDS011;1662;49.310;8.134;2022-08-18T13:48:40;11.30;;;10.70;;
3299;SDS011;1662;49.310;8.134;2022-08-18T13:51:07;10.93;;;10.33;;
3299;SDS011;1662;49.310;8.134;2022-08-18T13:53:36;12.43;;;11.57;;
3299;SDS011;1662;49.310;8.134;2022-08-18T13:56:03;10.93;;;10.33;;
3299;SDS011;1662;49.310;8.134;2022-08-18T13:58:29;12.40;;;11.30;;
3299;SDS011;1662;49.310;8.134;2022-08-18T14:00:56;11.50;;;10.90;;
3299;SDS011;1662;49.310;8.134;2022-08-18T14:03:24;11.43;;;10.63;;
3299;SDS011;1662;49.310;8.134;2022-08-18T14:05:50;11.90;;;11.20;;
3299;SDS011;1662;49.310;8.134;2022-08-18T14:08:17;10.97;;;10.27;;
3299;SDS011;1662;49.310;8.134;2022-08-18T14:10:43;10.90;;;10.30;;
3299;SDS011;1662;49.310;8.134;2022-08-18T14:13:16;11.07;;;10.50;;
3299;SDS011;1662;49.310;8.134;2022-08-18T14:15:43;11.80;;;11.00;;
3299;SDS011;1662;49.310;8.134;2022-08-18T14:18:09;12.00;;;11.40;;
3299;SDS011;1662;49.310;8.134;2022-08-18T14:20:35;12.50;;;11.60;;
3299;SDS011;1662;49.310;8.134;2022-08-18T14:23:19;11.97;;;11.23;;
3299;SDS011;1662;49.310;8.134;2022-08-18T14:26:04;12.90;;;12.10;;
3299;SDS011;1662;49.310;8.134;2022-08-18T14:28:50;13.20;;;12.40;;
3299;SDS011;1662;49.310;8.134;2022-08-18T14:31:16;12.03;;;11.33;;
3299;SDS011;1662;49.310;8.134;2022-08-18T14:33:43;12.37;;;11.63;;
3299;SDS011;1662;49.310;8.134;2022-08-18T14:36:10;12.63;;;11.83;;
3299;SDS011;1662;49.310;8.134;2022-08-18T14:38:36;12.97;;;12.27;;
3299;SDS011;1662;49.310;8.134;2022-08-18T14:41:03;14.53;;;13.40;;
3299;SDS011;1662;49.310;8.134;2022-08-18T14:43:30;12.90;;;12.17;;
3299;SDS011;1662;49.310;8.134;2022-08-18T14:45:57;13.03;;;12.33;;
3299;SDS011;1662;49.310;8.134;2022-08-18T14:48:23;14.20;;;13.20;;
3299;SDS011;1662;49.310;8.134;2022-08-18T14:50:52;13.13;;;12.13;;
3299;SDS011;1662;49.310;8.134;2022-08-18T14:53:21;15.37;;;14.17;;
3299;SDS011;1662;49.310;8.134;2022-08-18T14:55:49;15.47;;;14.47;;
3299;SDS011;1662;49.310;8.134;2022-08-18T14:58:17;16.70;;;15.60;;
3299;SDS011;1662;49.310;8.134;2022-08-18T15:00:43;15.07;;;14.10;;
3299;SDS011;1662;49.310;8.134;2022-08-18T15:03:09;17.40;;;16.20;;
3299;SDS011;1662;49.310;8.134;2022-08-18T15:05:35;15.20;;;14.20;;
3299;SDS011;1662;49.310;8.134;2022-08-18T15:08:02;16.70;;;15.50;;
3299;SDS011;1662;49.310;8.134;2022-08-18T15:10:30;17.50;;;16.20;;
3299;SDS011;1662;49.310;8.134;2022-08-18T15:12:56;17.70;;;16.50;;
3299;SDS011;1662;49.310;8.134;2022-08-18T15:15:24;17.47;;;16.17;;
3299;SDS011;1662;49.310;8.134;2022-08-18T15:17:51;16.40;;;15.30;;
3299;SDS011;1662;49.310;8.134;2022-08-18T15:20:16;16.87;;;15.67;;
3299;SDS011;1662;49.310;8.134;2022-08-18T15:22:43;17.40;;;16.00;;
3299;SDS011;1662;49.310;8.134;2022-08-18T15:25:28;17.20;;;16.00;;
3299;SDS011;1662;49.310;8.134;2022-08-18T15:28:12;15.77;;;14.87;;
3299;SDS011;1662;49.310;8.134;2022-08-18T15:30:42;16.73;;;15.73;;
3299;SDS011;1662;49.310;8.134;2022-08-18T15:33:09;15.60;;;14.63;;
3299;SDS011;1662;49.310;8.134;2022-08-18T15:35:37;17.20;;;16.00;;
3299;SDS011;1662;49.310;8.134;2022-08-18T15:38:05;15.60;;;14.60;;
3299;SDS011;1662;49.310;8.134;2022-08-18T15:40:32;16.20;;;15.07;;
3299;SDS011;1662;49.310;8.134;2022-08-18T15:42:58;16.10;;;15.10;;
3299;SDS011;1662;49.310;8.134;2022-08-18T15:45:29;16.33;;;15.20;;
3299;SDS011;1662;49.310;8.134;2022-08-18T15:48:05;16.70;;;15.50;;
3299;SDS011;1662;49.310;8.134;2022-08-18T15:50:31;15.03;;;13.83;;
3299;SDS011;1662;49.310;8.134;2022-08-18T15:52:58;15.30;;;14.20;;
3299;SDS011;1662;49.310;8.134;2022-08-18T15:55:31;15.70;;;14.50;;
3299;SDS011;1662;49.310;8.134;2022-08-18T15:57:59;14.60;;;13.67;;
3299;SDS011;1662;49.310;8.134;2022-08-18T16:00:25;15.10;;;14.10;;
3299;SDS011;1662;49.310;8.134;2022-08-18T16:03:02;15.60;;;14.50;;
3299;SDS011;1662;49.310;8.134;2022-08-18T16:05:32;17.00;;;15.83;;
3299;SDS011;1662;49.310;8.134;2022-08-18T16:08:00;17.67;;;16.20;;
3299;SDS011;1662;49.310;8.134;2022-08-18T16:10:29;18.33;;;17.07;;
3299;SDS011;1662;49.310;8.134;2022-08-18T16:12:57;17.27;;;16.00;;
3299;SDS011;1662;49.310;8.134;2022-08-18T16:15:23;17.40;;;16.00;;
3299;SDS011;1662;49.310;8.134;2022-08-18T16:17:51;19.00;;;16.87;;
3299;SDS011;1662;49.310;8.134;2022-08-18T16:20:21;16.67;;;15.47;;
3299;SDS011;1662;49.310;8.134;2022-08-18T16:22:48;18.37;;;17.07;;
3299;SDS011;1662;49.310;8.134;2022-08-18T16:25:15;17.53;;;16.23;;
3299;SDS011;1662;49.310;8.134;2022-08-18T16:27:44;18.43;;;17.13;;
3299;SDS011;1662;49.310;8.134;2022-08-18T16:30:12;18.23;;;17.00;;
3299;SDS011;1662;49.310;8.134;2022-08-18T16:32:46;17.90;;;16.50;;
3299;SDS011;1662;49.310;8.134;2022-08-18T16:35:15;17.57;;;16.27;;
3299;SDS011;1662;49.310;8.134;2022-08-18T16:37:42;19.50;;;17.97;;
3299;SDS011;1662;49.310;8.134;2022-08-18T16:40:08;18.03;;;16.73;;
3299;SDS011;1662;49.310;8.134;2022-08-18T16:42:34;17.63;;;16.20;;
3299;SDS011;1662;49.310;8.134;2022-08-18T16:45:00;19.10;;;17.80;;
3299;SDS011;1662;49.310;8.134;2022-08-18T16:47:28;17.47;;;16.13;;
3299;SDS011;1662;49.310;8.134;2022-08-18T16:49:55;17.67;;;16.27;;
3299;SDS011;1662;49.310;8.134;2022-08-18T16:52:21;18.03;;;16.63;;
3299;SDS011;1662;49.310;8.134;2022-08-18T16:54:47;16.80;;;15.57;;
3299;SDS011;1662;49.310;8.134;2022-08-18T16:57:13;16.33;;;15.23;;
3299;SDS011;1662;49.310;8.134;2022-08-18T16:59:58;16.37;;;15.07;;
3299;SDS011;1662;49.310;8.134;2022-08-18T17:02:43;16.57;;;15.37;;
3299;SDS011;1662;49.310;8.134;2022-08-18T17:05:29;15.57;;;14.47;;
3299;SDS011;1662;49.310;8.134;2022-08-18T17:08:00;14.63;;;13.73;;
3299;SDS011;1662;49.310;8.134;2022-08-18T17:10:26;17.30;;;15.90;;
3299;SDS011;1662;49.310;8.134;2022-08-18T17:12:51;17.00;;;15.80;;
3299;SDS011;1662;49.310;8.134;2022-08-18T17:15:17;17.80;;;16.10;;
3299;SDS011;1662;49.310;8.134;2022-08-18T17:17:43;18.17;;;16.83;;
3299;SDS011;1662;49.310;8.134;2022-08-18T17:20:09;15.43;;;14.23;;
3299;SDS011;1662;49.310;8.134;2022-08-18T17:22:35;16.33;;;15.13;;
3299;SDS011;1662;49.310;8.134;2022-08-18T17:25:01;16.10;;;14.90;;
3299;SDS011;1662;49.310;8.134;2022-08-18T17:27:32;16.10;;;15.10;;
3299;SDS011;1662;49.310;8.134;2022-08-18T17:32:43;16.73;;;15.53;;
3299;SDS011;1662;49.310;8.134;2022-08-18T17:37:45;16.53;;;15.37;;
3299;SDS011;1662;49.310;8.134;2022-08-18T17:40:21;17.17;;;15.87;;
3299;SDS011;1662;49.310;8.134;2022-08-18T17:42:51;17.87;;;16.57;;
3299;SDS011;1662;49.310;8.134;2022-08-18T17:45:17;17.77;;;16.50;;
3299;SDS011;1662;49.310;8.134;2022-08-18T17:50:35;16.63;;;15.43;;
3299;SDS011;1662;49.310;8.134;2022-08-18T17:53:21;16.43;;;15.30;;
3299;SDS011;1662;49.310;8.134;2022-08-18T17:55:53;14.13;;;13.13;;
3299;SDS011;1662;49.310;8.134;2022-08-18T18:01:05;18.10;;;16.47;;
3299;SDS011;1662;49.310;8.134;2022-08-18T18:03:35;17.50;;;16.03;;
3299;SDS011;1662;49.310;8.134;2022-08-18T18:06:05;16.93;;;15.70;;
3299;SDS011;1662;49.310;8.134;2022-08-18T18:11:33;15.10;;;14.00;;
3299;SDS011;1662;49.310;8.134;2022-08-18T18:17:13;19.27;;;16.43;;
3299;SDS011;1662;49.310;8.134;2022-08-18T18:19:42;16.13;;;14.93;;
3299;SDS011;1662;49.310;8.134;2022-08-18T18:22:26;28.07;;;17.73;;
3299;SDS011;1662;49.310;8.134;2022-08-18T18:24:55;18.10;;;16.20;;
3299;SDS011;1662;49.310;8.134;2022-08-18T18:27:25;16.87;;;15.50;;
3299;SDS011;1662;49.310;8.134;2022-08-18T18:29:55;16.37;;;15.17;;
3299;SDS011;1662;49.310;8.134;2022-08-18T18:32:25;16.20;;;14.90;;
3299;SDS011;1662;49.310;8.134;2022-08-18T18:37:47;18.53;;;17.03;;
3299;SDS011;1662;49.310;8.134;2022-08-18T18:43:09;18.03;;;16.63;;
3299;SDS011;1662;49.310;8.134;2022-08-18T18:56:59;19.80;;;18.10;;
3299;SDS011;1662;49.310;8.134;2022-08-18T19:05:43;19.90;;;18.13;;
3299;SDS011;1662;49.310;8.134;2022-08-18T19:08:29;21.90;;;19.60;;
3299;SDS011;1662;49.310;8.134;2022-08-18T19:13:49;21.00;;;19.20;;
3299;SDS011;1662;49.310;8.134;2022-08-18T19:16:29;21.37;;;19.03;;
3299;SDS011;1662;49.310;8.134;2022-08-18T19:19:03;19.90;;;17.93;;
3299;SDS011;1662;49.310;8.134;2022-08-18T19:21:44;21.27;;;19.27;;